createdAt,value
2022-12-06T00:00:05.321Z,15.85
2022-12-06T00:01:05.309Z,15.84
2022-12-06T00:02:05.519Z,15.85
2022-12-06T00:03:05.314Z,15.84
2022-12-06T00:04:05.279Z,15.84
2022-12-06T00:05:05.276Z,15.85
2022-12-06T00:06:05.777Z,15.85
2022-12-06T00:07:05.238Z,15.85
2022-12-06T00:08:05.427Z,15.84
2022-12-06T00:09:05.224Z,15.84
2022-12-06T00:10:05.224Z,15.84
2022-12-06T00:11:05.197Z,15.87
2022-12-06T00:12:05.190Z,15.85
2022-12-06T00:13:05.180Z,15.85
2022-12-06T00:14:05.211Z,15.87
2022-12-06T00:15:05.168Z,15.87
2022-12-06T00:16:05.230Z,15.84
2022-12-06T00:17:05.148Z,15.85
2022-12-06T00:18:05.134Z,15.87
2022-12-06T00:19:05.141Z,15.84
2022-12-06T00:20:05.242Z,15.85
2022-12-06T00:21:05.093Z,15.85
2022-12-06T00:22:05.096Z,15.84
2022-12-06T00:23:05.084Z,15.87
2022-12-06T00:24:05.070Z,15.85
2022-12-06T00:25:05.056Z,15.87
2022-12-06T00:26:05.210Z,15.87
2022-12-06T00:27:05.036Z,15.87
2022-12-06T00:28:05.047Z,15.87
2022-12-06T00:29:05.015Z,15.87
2022-12-06T00:30:05.093Z,15.87
2022-12-06T00:31:04.993Z,15.88
2022-12-06T00:32:05.269Z,15.87
2022-12-06T00:33:04.978Z,15.88
2022-12-06T00:34:04.970Z,15.87
2022-12-06T00:35:04.947Z,15.87
2022-12-06T00:36:04.943Z,15.87
2022-12-06T00:37:04.923Z,15.87
2022-12-06T00:38:05.064Z,15.88
2022-12-06T00:39:04.918Z,15.88
2022-12-06T00:40:04.907Z,15.88
2022-12-06T00:41:04.883Z,15.88
2022-12-06T00:42:04.875Z,15.88
2022-12-06T00:43:04.869Z,15.87
2022-12-06T00:44:05.003Z,15.87
2022-12-06T00:45:04.842Z,15.87
2022-12-06T00:46:04.838Z,15.88
2022-12-06T00:47:04.822Z,15.87
2022-12-06T00:48:04.806Z,15.88
2022-12-06T00:49:04.813Z,15.87
2022-12-06T00:50:04.820Z,15.88
2022-12-06T00:51:04.780Z,15.87
2022-12-06T00:52:04.766Z,15.87
2022-12-06T00:53:04.761Z,15.90
2022-12-06T00:54:04.749Z,15.87
2022-12-06T00:55:04.733Z,15.88
2022-12-06T00:56:04.880Z,15.85
2022-12-06T00:57:04.711Z,15.87
2022-12-06T00:58:04.706Z,15.87
2022-12-06T00:59:04.698Z,15.87
2022-12-06T01:00:04.684Z,15.87
2022-12-06T01:01:04.755Z,15.87
2022-12-06T01:02:04.788Z,15.88
2022-12-06T01:03:04.690Z,15.85
2022-12-06T01:04:04.643Z,15.87
2022-12-06T01:05:04.632Z,15.87
2022-12-06T01:06:04.621Z,15.87
2022-12-06T01:07:04.654Z,15.87
2022-12-06T01:08:04.823Z,15.87
2022-12-06T01:09:04.593Z,15.85
2022-12-06T01:10:04.579Z,15.87
2022-12-06T01:11:04.589Z,15.85
2022-12-06T01:12:04.561Z,15.85
2022-12-06T01:13:04.553Z,15.85
2022-12-06T01:14:04.705Z,15.85
2022-12-06T01:15:04.531Z,15.84
2022-12-06T01:16:04.516Z,15.85
2022-12-06T01:17:04.651Z,15.85
2022-12-06T01:18:04.514Z,15.85
2022-12-06T01:19:04.499Z,15.84
2022-12-06T01:20:04.619Z,15.84
2022-12-06T01:21:04.500Z,15.85
2022-12-06T01:22:04.454Z,15.84
2022-12-06T01:23:04.496Z,15.84
2022-12-06T01:24:04.448Z,15.84
2022-12-06T01:25:04.443Z,15.85
2022-12-06T01:26:04.567Z,15.83
2022-12-06T01:27:04.399Z,15.83
2022-12-06T01:28:04.406Z,15.83
2022-12-06T01:29:04.381Z,15.84
2022-12-06T01:30:04.386Z,15.85
2022-12-06T01:31:04.452Z,15.83
2022-12-06T01:32:04.389Z,15.84
2022-12-06T01:33:04.366Z,15.83
2022-12-06T01:34:04.335Z,15.84
2022-12-06T01:35:04.410Z,15.83
2022-12-06T01:36:04.392Z,15.83
2022-12-06T01:37:04.326Z,15.83
2022-12-06T01:38:06.216Z,15.83
2022-12-06T01:39:04.285Z,15.81
2022-12-06T01:40:04.304Z,15.81
2022-12-06T01:41:04.306Z,15.81
2022-12-06T01:42:04.279Z,15.81
2022-12-06T01:43:04.310Z,15.81
2022-12-06T01:44:04.267Z,15.81
2022-12-06T01:45:04.213Z,15.81
2022-12-06T01:46:04.283Z,15.78
2022-12-06T01:47:04.193Z,15.80
2022-12-06T01:48:04.250Z,15.80
2022-12-06T01:49:04.166Z,15.80
2022-12-06T01:50:04.280Z,15.80
2022-12-06T01:51:04.147Z,15.78
2022-12-06T01:52:04.141Z,15.78
2022-12-06T01:53:04.128Z,15.80
2022-12-06T01:54:04.108Z,15.80
2022-12-06T01:55:04.106Z,15.80
2022-12-06T01:56:04.344Z,15.80
2022-12-06T01:57:04.080Z,15.81
2022-12-06T01:58:04.065Z,15.80
2022-12-06T01:59:04.074Z,15.80
2022-12-06T02:00:04.045Z,15.78
2022-12-06T02:01:04.104Z,15.80
2022-12-06T02:02:04.098Z,15.80
2022-12-06T02:03:04.069Z,15.81
2022-12-06T02:04:04.005Z,15.80
2022-12-06T02:05:04.007Z,15.81
2022-12-06T02:06:03.985Z,15.80
2022-12-06T02:07:03.978Z,15.81
2022-12-06T02:08:04.129Z,15.81
2022-12-06T02:09:03.955Z,15.81
2022-12-06T02:10:03.938Z,15.81
2022-12-06T02:11:03.942Z,15.80
2022-12-06T02:12:03.919Z,15.81
2022-12-06T02:13:03.924Z,15.81
2022-12-06T02:14:04.038Z,15.81
2022-12-06T02:15:03.896Z,15.81
2022-12-06T02:16:03.889Z,15.81
2022-12-06T02:17:03.955Z,15.81
2022-12-06T02:18:03.871Z,15.80
2022-12-06T02:19:03.852Z,15.81
2022-12-06T02:20:03.960Z,15.80
2022-12-06T02:21:03.840Z,15.81
2022-12-06T02:22:03.826Z,15.81
2022-12-06T02:23:03.817Z,15.81
2022-12-06T02:24:03.794Z,15.83
2022-12-06T02:25:03.788Z,15.83
2022-12-06T02:26:03.787Z,15.83
2022-12-06T02:27:03.782Z,15.83
2022-12-06T02:28:03.757Z,15.81
2022-12-06T02:29:03.748Z,15.80
2022-12-06T02:30:03.727Z,15.83
2022-12-06T02:31:03.820Z,15.81
2022-12-06T02:32:03.737Z,15.81
2022-12-06T02:33:03.699Z,15.81
2022-12-06T02:34:03.698Z,15.81
2022-12-06T02:35:03.680Z,15.81
2022-12-06T02:36:03.665Z,15.80
2022-12-06T02:37:03.662Z,15.83
2022-12-06T02:38:05.784Z,15.81
2022-12-06T02:39:03.647Z,15.83
2022-12-06T02:40:03.624Z,15.83
2022-12-06T02:41:03.623Z,15.83
2022-12-06T02:42:03.618Z,15.81
2022-12-06T02:43:03.599Z,15.81
2022-12-06T02:44:03.745Z,15.81
2022-12-06T02:45:03.575Z,15.84
2022-12-06T02:46:03.636Z,15.81
2022-12-06T02:47:03.558Z,15.81
2022-12-06T02:48:03.541Z,15.83
2022-12-06T02:49:03.535Z,15.84
2022-12-06T02:50:03.551Z,15.81
2022-12-06T02:51:03.517Z,15.83
2022-12-06T02:52:03.501Z,15.83
2022-12-06T02:53:03.493Z,15.83
2022-12-06T02:54:03.476Z,15.84
2022-12-06T02:55:03.473Z,15.81
2022-12-06T02:56:03.584Z,15.83
2022-12-06T02:57:03.460Z,15.83
2022-12-06T02:58:03.433Z,15.83
2022-12-06T02:59:03.442Z,15.84
2022-12-06T03:00:03.414Z,15.83
2022-12-06T03:01:03.470Z,15.83
2022-12-06T03:02:03.762Z,15.84
2022-12-06T03:03:03.439Z,15.83
2022-12-06T03:04:03.377Z,15.83
2022-12-06T03:05:03.370Z,15.83
2022-12-06T03:06:03.349Z,15.83
2022-12-06T03:07:03.343Z,15.81
2022-12-06T03:08:03.403Z,15.83
2022-12-06T03:09:03.327Z,15.83
2022-12-06T03:10:03.747Z,15.84
2022-12-06T03:11:03.310Z,15.81
2022-12-06T03:12:03.283Z,15.83
2022-12-06T03:13:03.424Z,15.81
2022-12-06T03:14:03.399Z,15.81
2022-12-06T03:15:03.281Z,15.81
2022-12-06T03:16:03.369Z,15.83
2022-12-06T03:17:03.241Z,15.83
2022-12-06T03:18:03.232Z,15.83
2022-12-06T03:19:03.223Z,15.81
2022-12-06T03:20:03.322Z,15.81
2022-12-06T03:21:03.195Z,15.83
2022-12-06T03:22:03.188Z,15.83
2022-12-06T03:23:03.169Z,15.80
2022-12-06T03:24:03.160Z,15.81
2022-12-06T03:25:03.195Z,15.81
2022-12-06T03:26:03.182Z,15.83
2022-12-06T03:27:03.151Z,15.83
2022-12-06T03:28:03.127Z,15.83
2022-12-06T03:29:03.113Z,15.81
2022-12-06T03:30:03.188Z,15.81
2022-12-06T03:31:03.159Z,15.83
2022-12-06T03:32:03.207Z,15.83
2022-12-06T03:33:03.073Z,15.83
2022-12-06T03:34:03.068Z,15.83
2022-12-06T03:35:03.067Z,15.81
2022-12-06T03:36:03.038Z,15.81
2022-12-06T03:37:03.031Z,15.81
2022-12-06T03:38:03.157Z,15.84
2022-12-06T03:39:03.005Z,15.81
2022-12-06T03:40:03.171Z,15.83
2022-12-06T03:41:02.992Z,15.84
2022-12-06T03:42:02.993Z,15.81
2022-12-06T03:43:02.966Z,15.83
2022-12-06T03:44:03.083Z,15.84
2022-12-06T03:45:02.942Z,15.83
2022-12-06T03:46:03.053Z,15.83
2022-12-06T03:47:02.975Z,15.83
2022-12-06T03:48:02.918Z,15.83
2022-12-06T03:49:02.907Z,15.83
2022-12-06T03:50:03.106Z,15.81
2022-12-06T03:51:02.891Z,15.83
2022-12-06T03:52:02.860Z,15.83
2022-12-06T03:53:02.864Z,15.81
2022-12-06T03:54:02.847Z,15.83
2022-12-06T03:55:02.840Z,15.81
2022-12-06T03:56:02.974Z,15.83
2022-12-06T03:57:02.828Z,15.81
2022-12-06T03:58:02.814Z,15.81
2022-12-06T03:59:02.799Z,15.81
2022-12-06T04:00:02.786Z,15.83
2022-12-06T04:01:02.828Z,15.80
2022-12-06T04:02:02.945Z,15.83
2022-12-06T04:03:02.775Z,15.80
2022-12-06T04:04:02.821Z,15.81
2022-12-06T04:05:02.735Z,15.81
2022-12-06T04:06:02.731Z,15.83
2022-12-06T04:07:02.714Z,15.81
2022-12-06T04:08:02.979Z,15.81
2022-12-06T04:09:02.697Z,15.83
2022-12-06T04:10:03.271Z,15.81
2022-12-06T04:11:02.669Z,15.81
2022-12-06T04:12:02.667Z,15.81
2022-12-06T04:13:02.684Z,15.81
2022-12-06T04:14:02.669Z,15.81
2022-12-06T04:15:02.627Z,15.83
2022-12-06T04:16:02.688Z,15.81
2022-12-06T04:17:02.820Z,15.81
2022-12-06T04:18:02.667Z,15.81
2022-12-06T04:19:02.601Z,15.81
2022-12-06T04:20:02.818Z,15.81
2022-12-06T04:21:02.596Z,15.81
2022-12-06T04:22:02.565Z,15.81
2022-12-06T04:23:02.601Z,15.83
2022-12-06T04:24:02.535Z,15.83
2022-12-06T04:25:02.527Z,15.80
2022-12-06T04:26:02.657Z,15.83
2022-12-06T04:27:02.505Z,15.80
2022-12-06T04:28:02.490Z,15.81
2022-12-06T04:29:02.478Z,15.81
2022-12-06T04:30:02.535Z,15.81
2022-12-06T04:31:02.504Z,15.80
2022-12-06T04:32:02.547Z,15.83
2022-12-06T04:33:02.459Z,15.83
2022-12-06T04:34:02.442Z,15.81
2022-12-06T04:35:02.418Z,15.81
2022-12-06T04:36:02.404Z,15.83
2022-12-06T04:37:02.440Z,15.81
2022-12-06T04:38:02.418Z,15.83
2022-12-06T04:39:02.400Z,15.81
2022-12-06T04:40:02.699Z,15.81
2022-12-06T04:41:02.362Z,15.83
2022-12-06T04:42:02.345Z,15.81
2022-12-06T04:43:02.360Z,15.83
2022-12-06T04:44:02.448Z,15.83
2022-12-06T04:45:02.331Z,15.83
2022-12-06T04:46:02.306Z,15.81
2022-12-06T04:47:02.418Z,15.80
2022-12-06T04:48:02.311Z,15.81
2022-12-06T04:49:02.267Z,15.81
2022-12-06T04:50:02.708Z,15.81
2022-12-06T04:51:02.338Z,15.80
2022-12-06T04:52:02.236Z,15.80
2022-12-06T04:53:02.267Z,15.80
2022-12-06T04:54:02.261Z,15.83
2022-12-06T04:55:02.264Z,15.80
2022-12-06T04:56:02.372Z,15.81
2022-12-06T04:57:02.213Z,15.81
2022-12-06T04:58:02.229Z,15.81
2022-12-06T04:59:02.180Z,15.83
2022-12-06T05:00:02.514Z,15.81
2022-12-06T05:01:02.267Z,15.80
2022-12-06T05:02:02.215Z,15.81
2022-12-06T05:03:02.161Z,15.81
2022-12-06T05:04:02.172Z,15.81
2022-12-06T05:05:02.162Z,15.83
2022-12-06T05:06:02.154Z,15.81
2022-12-06T05:07:02.148Z,15.83
2022-12-06T05:08:02.211Z,15.80
2022-12-06T05:09:02.195Z,15.83
2022-12-06T05:10:02.428Z,15.80
2022-12-06T05:11:02.067Z,15.81
2022-12-06T05:12:02.032Z,15.83
2022-12-06T05:13:02.013Z,15.81
2022-12-06T05:14:02.155Z,15.81
2022-12-06T05:15:01.997Z,15.81
2022-12-06T05:16:02.094Z,15.81
2022-12-06T05:17:02.630Z,15.83
2022-12-06T05:18:02.017Z,15.83
2022-12-06T05:19:01.961Z,15.81
2022-12-06T05:20:02.250Z,15.81
2022-12-06T05:21:01.940Z,15.83
2022-12-06T05:22:01.922Z,15.81
2022-12-06T05:23:01.918Z,15.81
2022-12-06T05:24:01.905Z,15.83
2022-12-06T05:25:02.066Z,15.81
2022-12-06T05:26:02.044Z,15.81
2022-12-06T05:27:01.866Z,15.81
2022-12-06T05:28:01.872Z,15.81
2022-12-06T05:29:01.844Z,15.83
2022-12-06T05:30:02.111Z,15.81
2022-12-06T05:31:01.891Z,15.81
2022-12-06T05:32:01.923Z,15.83
2022-12-06T05:33:01.808Z,15.81
2022-12-06T05:34:01.804Z,15.83
2022-12-06T05:35:01.789Z,15.83
2022-12-06T05:36:01.787Z,15.81
2022-12-06T05:37:01.768Z,15.83
2022-12-06T05:38:01.881Z,15.84
2022-12-06T05:39:01.737Z,15.83
2022-12-06T05:40:02.263Z,15.83
2022-12-06T05:40:39.590Z,15.84
2022-12-06T05:41:40.567Z,15.83
2022-12-06T05:42:40.560Z,15.84
2022-12-06T05:43:40.592Z,15.83
2022-12-06T05:44:40.537Z,15.84
2022-12-06T05:45:40.603Z,15.85
2022-12-06T05:46:40.523Z,15.85
2022-12-06T05:47:40.506Z,15.87
2022-12-06T05:48:40.500Z,15.88
2022-12-06T05:49:40.532Z,15.88
2022-12-06T05:50:40.483Z,15.88
2022-12-06T05:51:40.465Z,15.87
2022-12-06T05:52:40.461Z,15.88
2022-12-06T05:53:40.442Z,15.90
2022-12-06T05:54:40.446Z,15.90
2022-12-06T05:55:40.458Z,15.91
2022-12-06T05:56:40.476Z,15.91
2022-12-06T05:57:46.906Z,15.92
2022-12-06T05:58:40.430Z,15.92
2022-12-06T05:59:40.377Z,15.92
2022-12-06T06:00:40.385Z,15.91
2022-12-06T06:01:40.419Z,15.92
2022-12-06T06:02:40.440Z,15.94
2022-12-06T06:03:45.741Z,15.96
2022-12-06T06:04:40.342Z,15.94
2022-12-06T06:05:40.317Z,15.94
2022-12-06T06:06:40.313Z,15.92
2022-12-06T06:07:40.462Z,15.94
2022-12-06T06:08:40.289Z,15.96
2022-12-06T06:09:40.277Z,15.96
2022-12-06T06:10:40.294Z,15.96
2022-12-06T06:11:40.256Z,15.94
2022-12-06T06:12:40.245Z,15.94
2022-12-06T06:13:40.505Z,15.96
2022-12-06T06:14:40.221Z,15.96
2022-12-06T06:15:40.254Z,15.96
2022-12-06T06:16:40.262Z,15.98
2022-12-06T06:17:40.197Z,15.98
2022-12-06T06:18:40.313Z,15.98
2022-12-06T06:19:40.204Z,15.96
2022-12-06T06:20:40.172Z,15.98
2022-12-06T06:21:40.147Z,15.99
2022-12-06T06:22:40.158Z,15.96
2022-12-06T06:23:40.139Z,15.98
2022-12-06T06:24:40.087Z,15.98
2022-12-06T06:25:40.175Z,15.96
2022-12-06T06:26:40.047Z,15.98
2022-12-06T06:27:40.037Z,15.98
2022-12-06T06:28:40.036Z,15.98
2022-12-06T06:29:45.123Z,15.98
2022-12-06T06:30:40.006Z,15.99
2022-12-06T06:34:53.811Z,16.00
2022-12-06T06:35:54.778Z,15.98
2022-12-06T06:36:54.769Z,16.00
2022-12-06T06:37:54.750Z,15.99
2022-12-06T06:38:54.744Z,15.99
2022-12-06T06:39:54.877Z,16.00
2022-12-06T06:40:54.732Z,16.00
2022-12-06T06:41:54.711Z,16.00
2022-12-06T06:42:54.748Z,16.00
2022-12-06T06:43:54.715Z,16.00
2022-12-06T06:44:54.875Z,16.02
2022-12-06T06:45:54.956Z,16.03
2022-12-06T06:46:54.729Z,16.03
2022-12-06T06:47:54.705Z,16.05
2022-12-06T06:48:54.693Z,16.08
2022-12-06T06:49:54.678Z,16.08
2022-12-06T06:50:57.616Z,16.06
2022-12-06T06:51:54.701Z,16.06
2022-12-06T06:52:54.662Z,16.08
2022-12-06T06:53:54.642Z,16.09
2022-12-06T06:54:54.649Z,16.10
2022-12-06T06:55:54.623Z,16.09
2022-12-06T06:56:54.615Z,16.09
2022-12-06T06:57:54.725Z,16.10
2022-12-06T06:58:54.592Z,16.09
2022-12-06T06:59:54.569Z,16.08
2022-12-06T07:00:54.648Z,16.09
2022-12-06T07:01:54.598Z,16.08
2022-12-06T07:02:54.603Z,16.08
2022-12-06T07:03:54.680Z,16.08
2022-12-06T07:04:54.529Z,16.08
2022-12-06T07:05:54.515Z,16.08
2022-12-06T07:06:54.511Z,16.08
2022-12-06T07:07:54.658Z,16.06
2022-12-06T07:08:54.500Z,16.05
2022-12-06T07:09:54.612Z,16.05
2022-12-06T07:10:54.483Z,16.03
2022-12-06T07:11:54.450Z,16.05
2022-12-06T07:12:54.441Z,16.03
2022-12-06T07:13:54.432Z,16.02
2022-12-06T07:14:54.423Z,16.02
2022-12-06T07:15:54.677Z,16.03
2022-12-06T07:16:54.446Z,16.03
2022-12-06T07:17:54.406Z,16.02
2022-12-06T07:18:54.388Z,16.02
2022-12-06T07:19:54.373Z,15.99
2022-12-06T07:20:54.326Z,16.00
2022-12-06T07:21:54.363Z,15.99
2022-12-06T07:22:54.339Z,16.02
2022-12-06T07:23:54.331Z,16.02
2022-12-06T07:24:54.334Z,16.00
2022-12-06T07:25:54.311Z,16.02
2022-12-06T07:26:54.308Z,16.02
2022-12-06T07:27:54.424Z,16.02
2022-12-06T07:28:54.288Z,16.02
2022-12-06T07:29:54.262Z,16.00
2022-12-06T07:30:54.325Z,15.99
2022-12-06T07:31:54.251Z,16.02
2022-12-06T07:32:54.245Z,16.02
2022-12-06T07:33:54.372Z,16.00
2022-12-06T07:34:54.258Z,16.00
2022-12-06T07:36:54.230Z,16.00
2022-12-06T07:37:54.192Z,15.99
2022-12-06T07:38:54.184Z,15.99
2022-12-06T07:39:54.195Z,15.99
2022-12-06T07:41:04.631Z,16.00
2022-12-06T07:41:54.148Z,15.99
2022-12-06T07:42:54.135Z,15.99
2022-12-06T07:43:54.125Z,16.00
2022-12-06T07:44:58.310Z,15.99
2022-12-06T07:45:54.376Z,15.98
2022-12-06T07:46:54.105Z,15.99
2022-12-06T07:47:54.107Z,15.99
2022-12-06T07:48:54.083Z,15.99
2022-12-06T07:49:54.064Z,15.99
2022-12-06T07:50:54.064Z,15.99
2022-12-06T07:51:54.185Z,15.98
2022-12-06T07:52:54.034Z,15.98
2022-12-06T07:53:54.027Z,15.96
2022-12-06T07:54:54.143Z,15.98
2022-12-06T07:55:53.996Z,15.96
2022-12-06T07:56:53.994Z,15.96
2022-12-06T07:57:54.143Z,15.96
2022-12-06T07:58:53.966Z,15.96
2022-12-06T07:59:53.962Z,15.96
2022-12-06T08:00:53.987Z,15.96
2022-12-06T08:01:54.030Z,15.94
2022-12-06T08:02:53.945Z,15.96
2022-12-06T08:03:54.079Z,15.96
2022-12-06T08:04:53.948Z,15.94
2022-12-06T08:05:53.891Z,15.96
2022-12-06T08:06:53.883Z,15.92
2022-12-06T08:07:53.923Z,15.94
2022-12-06T08:08:53.892Z,15.92
2022-12-06T08:09:53.914Z,15.92
2022-12-06T08:10:53.859Z,15.96
2022-12-06T08:11:53.834Z,15.94
2022-12-06T08:12:53.842Z,15.96
2022-12-06T08:13:53.815Z,15.96
2022-12-06T08:14:58.200Z,15.92
2022-12-06T08:15:54.002Z,15.98
2022-12-06T08:16:53.809Z,15.94
2022-12-06T08:17:53.789Z,15.94
2022-12-06T08:18:53.762Z,15.94
2022-12-06T08:19:53.793Z,15.92
2022-12-06T08:20:53.744Z,15.96
2022-12-06T08:21:53.987Z,15.96
2022-12-06T08:22:53.734Z,15.94
2022-12-06T08:23:53.744Z,15.94
2022-12-06T08:24:53.708Z,15.96
2022-12-06T08:25:53.691Z,15.94
2022-12-06T08:26:53.678Z,15.94
2022-12-06T08:27:53.814Z,15.94
2022-12-06T08:28:53.689Z,15.96
2022-12-06T08:29:53.653Z,15.94
2022-12-06T08:30:55.996Z,15.94
2022-12-06T08:31:53.635Z,15.94
2022-12-06T08:32:53.625Z,15.96
2022-12-06T08:33:53.668Z,15.96
2022-12-06T08:34:53.622Z,15.92
2022-12-06T08:35:53.583Z,15.92
2022-12-06T08:36:53.531Z,15.92
2022-12-06T08:37:53.563Z,15.92
2022-12-06T08:38:53.566Z,15.92
2022-12-06T08:39:53.576Z,15.92
2022-12-06T08:40:53.548Z,15.91
2022-12-06T08:41:53.532Z,15.92
2022-12-06T08:42:53.526Z,15.92
2022-12-06T08:43:53.506Z,15.91
2022-12-06T08:44:53.521Z,15.91
2022-12-06T08:45:53.668Z,15.94
2022-12-06T08:46:53.476Z,15.91
2022-12-06T08:47:53.509Z,15.90
2022-12-06T08:48:53.456Z,15.90
2022-12-06T08:49:53.449Z,15.91
2022-12-06T08:50:53.438Z,15.90
2022-12-06T08:51:53.586Z,15.91
2022-12-06T08:52:53.434Z,15.88
2022-12-06T08:53:53.401Z,15.90
2022-12-06T08:54:53.426Z,15.88
2022-12-06T08:55:58.757Z,15.88
2022-12-06T08:56:53.388Z,15.91
2022-12-06T08:57:53.396Z,15.88
2022-12-06T08:58:53.360Z,15.90
2022-12-06T08:59:53.341Z,15.90
2022-12-06T09:00:53.358Z,15.90
2022-12-06T09:01:53.415Z,15.90
2022-12-06T09:02:53.322Z,15.90
2022-12-06T09:03:53.450Z,15.88
2022-12-06T09:04:53.377Z,15.90
2022-12-06T09:05:53.284Z,15.90
2022-12-06T09:06:53.297Z,15.90
2022-12-06T09:07:53.342Z,15.90
2022-12-06T09:08:53.254Z,15.91
2022-12-06T09:09:53.367Z,15.88
2022-12-06T09:10:53.227Z,15.88
2022-12-06T09:11:53.220Z,15.88
2022-12-06T09:12:53.207Z,15.90
2022-12-06T09:13:53.205Z,15.90
2022-12-06T09:14:53.200Z,15.90
2022-12-06T09:15:53.365Z,15.91
2022-12-06T09:16:53.165Z,15.88
2022-12-06T09:17:53.164Z,15.90
2022-12-06T09:18:53.150Z,15.88
2022-12-06T09:19:53.164Z,15.88
2022-12-06T09:20:53.187Z,15.90
2022-12-06T09:21:53.146Z,15.88
2022-12-06T09:22:53.110Z,15.90
2022-12-06T09:23:53.103Z,15.90
2022-12-06T09:24:53.121Z,15.88
2022-12-06T09:25:53.081Z,15.90
2022-12-06T09:26:53.071Z,15.91
2022-12-06T09:27:53.337Z,15.87
2022-12-06T09:28:53.049Z,15.88
2022-12-06T09:29:53.061Z,15.88
2022-12-06T09:30:53.069Z,15.88
2022-12-06T09:31:53.021Z,15.88
2022-12-06T09:32:53.009Z,15.88
2022-12-06T09:33:53.167Z,15.88
2022-12-06T09:34:52.986Z,15.90
2022-12-06T09:35:52.979Z,15.90
2022-12-06T09:36:52.967Z,15.90
2022-12-06T09:37:52.943Z,15.90
2022-12-06T09:38:52.947Z,15.90
2022-12-06T09:39:53.054Z,15.90
2022-12-06T09:40:52.918Z,15.90
2022-12-06T09:41:52.912Z,15.90
2022-12-06T09:42:52.904Z,15.88
2022-12-06T09:43:52.894Z,15.90
2022-12-06T09:44:52.886Z,15.90
2022-12-06T09:45:52.850Z,15.88
2022-12-06T09:46:52.885Z,15.91
2022-12-06T09:48:00.178Z,15.91
2022-12-06T09:48:52.840Z,15.90
2022-12-06T09:49:52.820Z,15.90
2022-12-06T09:50:52.829Z,15.91
2022-12-06T09:51:52.835Z,15.91
2022-12-06T09:52:52.796Z,15.90
2022-12-06T09:53:52.786Z,15.90
2022-12-06T09:54:58.750Z,15.90
2022-12-06T09:55:52.768Z,15.91
2022-12-06T09:56:52.760Z,15.91
2022-12-06T09:57:52.901Z,15.90
2022-12-06T09:58:52.737Z,15.90
2022-12-06T09:59:52.714Z,15.90
2022-12-06T10:00:52.736Z,15.88
2022-12-06T10:01:52.852Z,15.91
2022-12-06T10:02:52.762Z,15.91
2022-12-06T10:03:52.757Z,15.91
2022-12-06T10:04:52.676Z,15.90
2022-12-06T10:05:52.659Z,15.91
2022-12-06T10:06:52.656Z,15.90
2022-12-06T10:07:52.775Z,15.92
2022-12-06T10:08:52.769Z,15.90
2022-12-06T10:09:52.814Z,15.87
2022-12-06T10:10:52.612Z,15.90
2022-12-06T10:11:52.602Z,15.91
2022-12-06T10:12:52.920Z,15.90
2022-12-06T10:13:52.577Z,15.88
2022-12-06T10:14:52.565Z,15.88
2022-12-06T10:15:52.733Z,15.88
2022-12-06T10:16:52.554Z,15.90
2022-12-06T10:17:52.781Z,15.88
2022-12-06T10:18:52.486Z,15.87
2022-12-06T10:19:52.561Z,15.87
2022-12-06T10:20:52.473Z,15.88
2022-12-06T10:21:52.468Z,15.88
2022-12-06T10:22:52.461Z,15.88
2022-12-06T10:23:54.164Z,15.90
2022-12-06T10:24:52.467Z,15.88
2022-12-06T10:25:52.467Z,15.88
2022-12-06T10:26:52.447Z,15.87
2022-12-06T10:27:52.586Z,15.88
2022-12-06T10:28:52.429Z,15.90
2022-12-06T10:29:52.487Z,15.87
2022-12-06T10:30:52.573Z,15.87
2022-12-06T10:31:52.444Z,15.88
2022-12-06T10:32:52.377Z,15.87
2022-12-06T10:33:52.647Z,15.88
2022-12-06T10:34:52.384Z,15.87
2022-12-06T10:35:52.358Z,15.88
2022-12-06T10:36:52.345Z,15.88
2022-12-06T10:37:52.341Z,15.88
2022-12-06T10:38:52.326Z,15.87
2022-12-06T10:39:52.457Z,15.87
2022-12-06T10:40:52.306Z,15.88
2022-12-06T10:41:52.297Z,15.88
2022-12-06T10:42:52.284Z,15.87
2022-12-06T10:43:52.267Z,15.88
2022-12-06T10:44:52.259Z,15.88
2022-12-06T10:45:52.418Z,15.88
2022-12-06T10:46:52.310Z,15.87
2022-12-06T10:47:52.229Z,15.87
2022-12-06T10:48:52.226Z,15.88
2022-12-06T10:49:52.188Z,15.87
2022-12-06T10:50:52.157Z,15.88
2022-12-06T10:51:52.306Z,15.90
2022-12-06T10:52:54.948Z,15.90
2022-12-06T10:53:52.125Z,15.91
2022-12-06T10:54:52.118Z,15.91
2022-12-06T10:55:52.099Z,15.92
2022-12-06T10:56:52.086Z,15.90
2022-12-06T10:57:52.395Z,15.91
2022-12-06T10:58:52.056Z,15.91
2022-12-06T10:59:52.057Z,15.91
2022-12-06T11:00:52.181Z,15.91
2022-12-06T11:01:52.076Z,15.92
2022-12-06T11:02:52.017Z,15.94
2022-12-06T11:03:52.223Z,15.94
2022-12-06T11:04:51.998Z,15.94
2022-12-06T11:05:52.046Z,15.94
2022-12-06T11:06:54.865Z,15.94
2022-12-06T11:07:51.989Z,15.96
2022-12-06T11:08:51.965Z,15.94
2022-12-06T11:09:52.151Z,15.96
2022-12-06T11:10:51.929Z,15.96
2022-12-06T11:11:51.927Z,15.98
2022-12-06T11:12:51.980Z,15.98
2022-12-06T11:13:51.912Z,15.99
2022-12-06T11:14:51.913Z,15.98
2022-12-06T11:15:52.023Z,15.99
2022-12-06T11:16:51.921Z,15.99
2022-12-06T11:17:51.924Z,15.99
2022-12-06T11:18:51.976Z,15.98
2022-12-06T11:19:51.921Z,15.99
2022-12-06T11:20:51.881Z,16.00
2022-12-06T11:21:51.960Z,16.00
2022-12-06T11:22:51.863Z,16.00
2022-12-06T11:23:51.867Z,16.00
2022-12-06T11:24:52.053Z,16.02
2022-12-06T11:25:51.840Z,16.00
2022-12-06T11:26:51.828Z,16.02
2022-12-06T11:27:51.987Z,16.02
2022-12-06T11:28:51.813Z,16.02
2022-12-06T11:29:51.803Z,16.02
2022-12-06T11:30:51.738Z,16.03
2022-12-06T11:31:51.915Z,16.03
2022-12-06T11:32:51.703Z,16.03
2022-12-06T11:33:52.070Z,16.03
2022-12-06T11:34:51.796Z,16.03
2022-12-06T11:35:51.743Z,16.05
2022-12-06T11:36:56.650Z,16.03
2022-12-06T11:37:51.719Z,16.02
2022-12-06T11:38:51.750Z,16.05
2022-12-06T11:39:51.845Z,16.05
2022-12-06T11:40:51.693Z,16.05
2022-12-06T11:41:51.684Z,16.05
2022-12-06T11:42:51.659Z,16.05
2022-12-06T11:43:51.661Z,16.05
2022-12-06T11:44:51.647Z,16.05
2022-12-06T11:45:51.826Z,16.06
2022-12-06T11:46:51.654Z,16.06
2022-12-06T11:47:51.614Z,16.05
2022-12-06T11:48:51.629Z,16.05
2022-12-06T11:49:51.617Z,16.06
2022-12-06T11:50:51.575Z,16.05
2022-12-06T11:51:51.608Z,16.05
2022-12-06T11:52:51.559Z,16.05
2022-12-06T11:53:51.549Z,16.03
2022-12-06T11:54:51.567Z,16.05
2022-12-06T11:55:51.527Z,16.05
2022-12-06T11:56:51.474Z,16.05
2022-12-06T11:57:51.666Z,16.03
2022-12-06T11:58:51.442Z,16.05
2022-12-06T11:59:51.453Z,16.03
2022-12-06T12:00:51.434Z,16.05
2022-12-06T12:01:51.515Z,16.06
2022-12-06T12:02:51.481Z,16.03
2022-12-06T12:03:51.591Z,16.03
2022-12-06T12:04:51.436Z,16.03
2022-12-06T12:05:51.440Z,16.05
2022-12-06T12:06:51.468Z,16.03
2022-12-06T12:07:51.434Z,16.05
2022-12-06T12:08:51.394Z,16.05
2022-12-06T12:09:51.466Z,16.05
2022-12-06T12:10:51.374Z,16.03
2022-12-06T12:11:51.374Z,16.05
2022-12-06T12:12:51.475Z,16.06
2022-12-06T12:13:51.343Z,16.06
2022-12-06T12:14:51.397Z,16.05
2022-12-06T12:15:51.518Z,16.05
2022-12-06T12:16:51.369Z,16.08
2022-12-06T12:17:51.323Z,16.06
2022-12-06T12:18:51.349Z,16.06
2022-12-06T12:19:51.289Z,16.08
2022-12-06T12:20:51.270Z,16.06
2022-12-06T12:21:54.400Z,16.06
2022-12-06T12:22:52.852Z,16.08
2022-12-06T12:23:51.248Z,16.06
2022-12-06T12:25:51.264Z,16.06
2022-12-06T12:26:51.204Z,16.06
2022-12-06T12:27:51.224Z,16.08
2022-12-06T12:28:51.209Z,16.06
2022-12-06T12:29:51.179Z,16.06
2022-12-06T12:30:51.163Z,16.08
2022-12-06T12:31:51.197Z,16.06
2022-12-06T12:32:51.151Z,16.06
2022-12-06T12:33:51.266Z,16.06
2022-12-06T12:34:51.139Z,16.06
2022-12-06T12:35:51.113Z,16.08
2022-12-06T12:36:51.097Z,16.06
2022-12-06T12:37:51.108Z,16.09
2022-12-06T12:38:51.096Z,16.06
2022-12-06T12:39:51.123Z,16.06
2022-12-06T12:40:51.083Z,16.06
2022-12-06T12:41:51.058Z,16.06
2022-12-06T12:42:51.043Z,16.05
2022-12-06T12:44:02.357Z,16.08
2022-12-06T12:44:51.020Z,16.06
2022-12-06T12:45:51.211Z,16.06
2022-12-06T12:46:51.075Z,16.06
2022-12-06T12:47:50.995Z,16.06
2022-12-06T12:48:50.977Z,16.05
2022-12-06T12:49:51.043Z,16.08
2022-12-06T12:50:50.962Z,16.06
2022-12-06T12:51:51.083Z,16.08
2022-12-06T12:52:50.974Z,16.06
2022-12-06T12:53:50.933Z,16.05
2022-12-06T12:54:50.923Z,16.05
2022-12-06T12:55:50.914Z,16.08
2022-12-06T12:56:50.921Z,16.06